Time;durP1;ratioP1;P1;durP2;ratioP2;P2;SDS_P1;SDS_P2;PMS_P1;PMS_P2;Temp;Humidity;BMP_temperature;BMP_pressure;BME280_temperature;BME280_humidity;BME280_pressure;Samples;Min_cycle;Max_cycle;Signal;HPM_P1;HPM_P2
2020/12/27 00:02:14;;;;;;;16.65;3.85;;;16.50;57.00;;;;;;5010105;28;20026;-74
2020/12/27 00:04:41;;;;;;;15.05;3.28;;;16.40;56.80;;;;;;5016124;28;20033;-73
2020/12/27 00:07:13;;;;;;;9.48;2.95;;;16.60;55.80;;;;;;5011220;28;20065;-73
2020/12/27 00:09:42;;;;;;;9.15;2.42;;;16.70;55.60;;;;;;5012295;28;20029;-72
2020/12/27 00:12:09;;;;;;;8.13;2.40;;;16.60;56.40;;;;;;5013937;28;20100;-73
2020/12/27 00:14:35;;;;;;;8.45;3.88;;;16.60;56.90;;;;;;5012312;28;20338;-71
2020/12/27 00:17:06;;;;;;;15.35;2.97;;;16.50;57.20;;;;;;5018263;28;20325;-74
2020/12/27 00:19:33;;;;;;;15.77;3.22;;;16.50;57.30;;;;;;5017200;28;20026;-75
2020/12/27 00:22:00;;;;;;;17.25;3.60;;;16.50;57.50;;;;;;5020466;28;20033;-75
2020/12/27 00:24:26;;;;;;;17.40;3.78;;;16.50;57.50;;;;;;5009828;28;20352;-73
2020/12/27 00:26:53;;;;;;;12.35;3.10;;;16.40;57.40;;;;;;5014528;28;20166;-73
2020/12/27 00:29:19;;;;;;;19.45;4.43;;;16.30;57.80;;;;;;5013257;28;20460;-72
2020/12/27 00:31:49;;;;;;;5.53;2.08;;;16.30;57.80;;;;;;5006462;28;20038;-73
2020/12/27 00:34:16;;;;;;;9.90;4.40;;;16.30;57.60;;;;;;5010793;28;20081;-73
2020/12/27 00:36:43;;;;;;;13.13;2.60;;;16.30;57.30;;;;;;5006121;28;20030;-73
2020/12/27 00:39:09;;;;;;;12.13;2.55;;;16.20;57.30;;;;;;5015050;28;20444;-72
2020/12/27 00:41:36;;;;;;;22.85;4.80;;;16.20;57.40;;;;;;5002652;28;20035;-73
2020/12/27 00:44:03;;;;;;;12.48;3.75;;;16.10;57.20;;;;;;5023664;28;20040;-72
2020/12/27 00:46:30;;;;;;;15.75;3.47;;;16.10;57.50;;;;;;5014244;28;20022;-72
2020/12/27 00:48:57;;;;;;;11.05;3.50;;;16.00;57.70;;;;;;5014384;28;20021;-72
2020/12/27 00:51:25;;;;;;;13.70;4.15;;;15.90;57.90;;;;;;5005800;28;20025;-72
2020/12/27 00:53:52;;;;;;;12.50;3.15;;;15.80;58.10;;;;;;5015091;28;20036;-72
2020/12/27 00:56:19;;;;;;;14.85;5.32;;;15.70;58.10;;;;;;5014902;28;20076;-74
2020/12/27 00:58:45;;;;;;;10.70;3.78;;;15.60;58.30;;;;;;5007841;28;20034;-72
2020/12/27 01:01:13;;;;;;;13.23;3.33;;;15.40;58.50;;;;;;5008988;28;20026;-72
2020/12/27 01:03:43;;;;;;;11.70;3.28;;;15.40;58.80;;;;;;5014170;28;20116;-72
2020/12/27 01:06:10;;;;;;;10.20;3.63;;;15.30;59.00;;;;;;5012818;28;20022;-72
2020/12/27 01:08:36;;;;;;;9.77;3.15;;;15.10;59.20;;;;;;5013088;28;20060;-72
2020/12/27 01:11:04;;;;;;;18.63;5.40;;;15.10;59.50;;;;;;5020923;28;20509;-72
2020/12/27 01:13:31;;;;;;;15.63;4.45;;;14.90;59.50;;;;;;5000581;28;20099;-72
2020/12/27 01:15:57;;;;;;;15.75;4.03;;;14.90;59.40;;;;;;5008383;28;20022;-72
2020/12/27 01:18:24;;;;;;;11.90;3.53;;;14.70;60.20;;;;;;5013429;28;20018;-72
2020/12/27 01:20:50;;;;;;;10.48;3.67;;;14.70;59.80;;;;;;5030926;28;20076;-73
2020/12/27 01:23:17;;;;;;;22.25;9.10;;;14.60;59.90;;;;;;5011543;28;20062;-73
2020/12/27 01:25:48;;;;;;;15.38;5.20;;;14.50;60.00;;;;;;5013431;28;20044;-73
2020/12/27 01:28:14;;;;;;;23.75;5.80;;;14.50;60.40;;;;;;5013035;28;20018;-71
2020/12/27 01:30:42;;;;;;;19.63;5.22;;;14.50;59.10;;;;;;5009532;28;20388;-71
2020/12/27 01:33:08;;;;;;;14.82;3.30;;;14.40;60.80;;;;;;5007189;28;20517;-71
2020/12/27 01:35:35;;;;;;;17.13;4.03;;;14.30;61.10;;;;;;5010189;28;20041;-71
2020/12/27 01:38:01;;;;;;;12.88;3.95;;;14.30;60.30;;;;;;5010772;28;20044;-71
2020/12/27 01:40:28;;;;;;;19.05;5.97;;;14.30;59.10;;;;;;5015104;28;20042;-71
2020/12/27 01:42:58;;;;;;;18.88;5.45;;;14.30;59.40;;;;;;5013418;28;20029;-71
2020/12/27 01:45:25;;;;;;;15.10;3.72;;;14.10;60.70;;;;;;5011983;28;20131;-71
2020/12/27 01:47:52;;;;;;;17.70;4.80;;;14.00;60.70;;;;;;5013077;28;20104;-72
2020/12/27 01:50:22;;;;;;;17.42;4.72;;;13.80;61.30;;;;;;5014825;28;20180;-74
2020/12/27 01:52:49;;;;;;;15.30;4.00;;;13.80;59.60;;;;;;5013009;28;20034;-72
2020/12/27 01:55:16;;;;;;;15.20;5.93;;;13.90;60.00;;;;;;5012683;28;20057;-72
2020/12/27 01:58:20;;;;;;;19.48;4.90;;;13.80;60.80;;;;;;5003300;28;20058;-72
2020/12/27 02:00:47;;;;;;;19.13;4.65;;;13.70;60.60;;;;;;5010512;28;20022;-72
2020/12/27 02:03:14;;;;;;;16.70;4.38;;;13.60;61.50;;;;;;5006355;28;20038;-72
2020/12/27 02:05:43;;;;;;;19.17;4.25;;;13.50;60.60;;;;;;5008739;28;20041;-74
2020/12/27 02:08:12;;;;;;;15.23;4.15;;;13.50;60.70;;;;;;5010920;28;20404;-72
2020/12/27 02:10:40;;;;;;;18.45;5.40;;;13.50;60.80;;;;;;5009796;28;20045;-72
2020/12/27 02:13:06;;;;;;;15.02;3.63;;;13.50;61.40;;;;;;5006050;28;20386;-72
2020/12/27 02:15:32;;;;;;;16.13;3.78;;;13.50;61.30;;;;;;5004137;28;20117;-71
2020/12/27 02:17:59;;;;;;;19.08;4.50;;;13.40;61.30;;;;;;5003753;28;20025;-70
2020/12/27 02:20:25;;;;;;;16.65;4.50;;;13.50;62.10;;;;;;5006771;28;20053;-72
2020/12/27 02:22:52;;;;;;;20.90;4.75;;;13.40;62.60;;;;;;5013474;28;20133;-70
2020/12/27 02:25:19;;;;;;;15.80;4.38;;;13.20;61.70;;;;;;5011146;28;20447;-70
2020/12/27 02:27:45;;;;;;;14.00;3.90;;;13.20;61.90;;;;;;5013317;28;20029;-70
2020/12/27 02:30:11;;;;;;;27.90;5.57;;;13.20;62.40;;;;;;5016477;28;20036;-70
2020/12/27 02:32:38;;;;;;;13.60;4.25;;;13.10;62.50;;;;;;5017811;28;20044;-70
2020/12/27 02:35:05;;;;;;;21.55;4.95;;;13.10;62.90;;;;;;5019807;28;20036;-70
2020/12/27 02:37:32;;;;;;;19.65;5.32;;;13.10;62.50;;;;;;5007574;28;20018;-70
2020/12/27 02:39:58;;;;;;;20.60;4.85;;;13.20;63.00;;;;;;5009057;28;20036;-70
2020/12/27 02:42:25;;;;;;;17.67;6.05;;;13.20;63.30;;;;;;5004267;28;20482;-70
2020/12/27 02:47:30;;;;;;;20.35;5.90;;;13.20;63.10;;;;;;5006935;28;20040;-71
2020/12/27 02:49:57;;;;;;;16.70;6.25;;;13.00;63.20;;;;;;5002902;28;20156;-73
2020/12/27 02:52:23;;;;;;;17.45;4.53;;;13.10;63.40;;;;;;5006923;28;20022;-70
2020/12/27 02:54:50;;;;;;;15.55;5.70;;;13.30;64.90;;;;;;5006360;28;20112;-70
2020/12/27 02:57:16;;;;;;;25.17;5.60;;;13.30;64.00;;;;;;5008196;28;20470;-70
2020/12/27 02:59:42;;;;;;;17.55;4.05;;;13.30;64.20;;;;;;5013336;28;20037;-70
2020/12/27 03:02:09;;;;;;;21.33;3.95;;;13.20;63.90;;;;;;5010214;28;20071;-70
2020/12/27 03:04:35;;;;;;;21.05;4.25;;;13.20;64.40;;;;;;5006201;28;20355;-70
2020/12/27 03:07:02;;;;;;;26.10;6.68;;;13.10;63.80;;;;;;5003363;28;20029;-71
2020/12/27 03:09:28;;;;;;;17.80;4.63;;;13.10;64.70;;;;;;5015984;28;20032;-69
2020/12/27 03:11:54;;;;;;;17.10;4.72;;;13.00;64.40;;;;;;5007732;28;20041;-71
2020/12/27 03:14:21;;;;;;;13.05;4.65;;;13.00;64.20;;;;;;5011586;28;20112;-70
2020/12/27 03:16:47;;;;;;;15.55;4.80;;;12.90;64.30;;;;;;5011984;28;20064;-71
2020/12/27 03:19:13;;;;;;;21.33;5.10;;;13.00;65.10;;;;;;5014522;28;20041;-70
2020/12/27 03:21:40;;;;;;;16.10;4.95;;;13.10;65.00;;;;;;5019168;28;20029;-73
2020/12/27 03:24:06;;;;;;;13.15;5.03;;;13.00;65.00;;;;;;5020178;28;20451;-71
2020/12/27 03:26:33;;;;;;;16.98;3.88;;;13.00;65.40;;;;;;5015391;28;20033;-71
2020/12/27 03:28:59;;;;;;;18.05;5.88;;;12.90;65.00;;;;;;5015698;28;20459;-71
2020/12/27 03:31:25;;;;;;;16.98;5.50;;;12.90;65.40;;;;;;5016553;28;20040;-75
2020/12/27 03:33:52;;;;;;;21.95;5.15;;;12.90;66.00;;;;;;5022199;28;20379;-72
2020/12/27 03:36:18;;;;;;;15.18;4.72;;;12.90;66.40;;;;;;5019427;28;20026;-71
2020/12/27 03:38:45;;;;;;;18.30;4.93;;;13.00;65.70;;;;;;5012581;28;20034;-71
2020/12/27 03:41:11;;;;;;;13.65;4.35;;;13.00;66.30;;;;;;5016012;28;20033;-71
2020/12/27 03:43:38;;;;;;;14.07;4.63;;;13.00;65.80;;;;;;5011945;28;20033;-72
2020/12/27 03:46:04;;;;;;;15.68;4.20;;;13.00;66.40;;;;;;5013732;28;20036;-71
2020/12/27 03:48:30;;;;;;;11.57;3.88;;;12.80;66.60;;;;;;5012285;28;20026;-71
2020/12/27 03:50:58;;;;;;;15.07;4.05;;;12.60;66.80;;;;;;5012978;28;20022;-70
2020/12/27 03:53:24;;;;;;;19.90;4.22;;;12.70;66.80;;;;;;5012930;28;20097;-72
2020/12/27 03:55:51;;;;;;;23.20;5.05;;;12.80;66.10;;;;;;5013901;28;20552;-71
2020/12/27 03:58:17;;;;;;;15.05;4.05;;;12.90;66.20;;;;;;5016110;28;20144;-72
2020/12/27 04:00:43;;;;;;;12.27;4.10;;;13.00;66.10;;;;;;5011409;28;20025;-71
2020/12/27 04:03:10;;;;;;;16.45;4.78;;;12.90;65.80;;;;;;5012681;28;20022;-72
2020/12/27 04:05:36;;;;;;;26.63;5.43;;;12.70;65.80;;;;;;5005582;28;20023;-72
2020/12/27 04:08:02;;;;;;;17.95;4.15;;;12.70;66.20;;;;;;5006809;28;20080;-72
2020/12/27 04:10:29;;;;;;;17.63;4.40;;;12.90;66.80;;;;;;5013778;28;20421;-71
2020/12/27 04:12:55;;;;;;;25.05;6.03;;;13.00;66.20;;;;;;5012537;28;20037;-72
2020/12/27 04:15:22;;;;;;;17.55;4.93;;;12.90;65.90;;;;;;5010678;28;20026;-71
2020/12/27 04:17:48;;;;;;;13.32;3.90;;;12.80;66.50;;;;;;5012604;28;20412;-72
2020/12/27 04:20:14;;;;;;;13.93;3.92;;;12.60;66.20;;;;;;5007859;28;20430;-71
2020/12/27 04:22:41;;;;;;;22.92;5.07;;;12.50;66.50;;;;;;5006239;28;20440;-71
2020/12/27 04:25:08;;;;;;;20.45;4.57;;;12.60;66.30;;;;;;5021929;28;20033;-70
2020/12/27 04:27:34;;;;;;;14.52;4.22;;;12.70;66.40;;;;;;5011688;28;20022;-72
2020/12/27 04:30:01;;;;;;;22.33;3.90;;;12.70;65.90;;;;;;5007613;28;20029;-72
2020/12/27 04:32:27;;;;;;;9.85;2.88;;;12.80;66.00;;;;;;5019456;28;20096;-71
2020/12/27 04:34:54;;;;;;;15.05;4.53;;;12.60;66.10;;;;;;5029640;28;20464;-72
2020/12/27 04:37:20;;;;;;;16.52;8.77;;;12.50;66.30;;;;;;5012485;28;20033;-72
2020/12/27 04:39:46;;;;;;;17.27;3.80;;;12.50;67.10;;;;;;5011278;28;20026;-72
2020/12/27 04:42:13;;;;;;;17.10;6.90;;;12.60;67.20;;;;;;5008677;28;20025;-71
2020/12/27 04:44:40;;;;;;;15.88;3.88;;;12.60;67.00;;;;;;5006757;28;20088;-72
2020/12/27 04:47:07;;;;;;;16.70;5.97;;;12.70;67.10;;;;;;5009545;28;20026;-72
2020/12/27 04:49:34;;;;;;;14.65;3.33;;;12.60;66.60;;;;;;5014750;28;20025;-72
2020/12/27 04:52:03;;;;;;;15.85;3.92;;;12.60;66.80;;;;;;5012663;28;20109;-71
2020/12/27 04:54:30;;;;;;;13.15;3.58;;;12.60;66.90;;;;;;5009042;28;20472;-72
2020/12/27 04:56:57;;;;;;;12.25;3.92;;;12.40;67.20;;;;;;5016133;28;20026;-72
2020/12/27 04:59:23;;;;;;;12.80;3.75;;;12.40;67.20;;;;;;5013517;28;20411;-72
2020/12/27 05:01:54;;;;;;;7.10;3.92;;;12.50;67.30;;;;;;5013990;28;20057;-71
2020/12/27 05:04:25;;;;;;;13.55;4.82;;;12.60;67.20;;;;;;5013924;28;20527;-71
2020/12/27 05:06:56;;;;;;;9.82;3.40;;;12.60;66.80;;;;;;5013155;28;20033;-71
2020/12/27 05:09:28;;;;;;;15.82;4.00;;;12.50;66.60;;;;;;5012072;28;20042;-72
2020/12/27 05:11:55;;;;;;;17.42;7.65;;;12.50;66.60;;;;;;5014905;28;20049;-72
2020/12/27 05:14:24;;;;;;;15.32;3.33;;;12.30;66.80;;;;;;5016899;28;20092;-71
2020/12/27 05:16:58;;;;;;;8.02;3.47;;;12.40;67.00;;;;;;5011721;28;20026;-71
2020/12/27 05:19:25;;;;;;;16.55;4.10;;;12.30;67.00;;;;;;5004639;28;20069;-71
2020/12/27 05:21:54;;;;;;;18.33;4.97;;;12.50;67.20;;;;;;5005688;28;20037;-71
2020/12/27 05:24:21;;;;;;;20.15;4.95;;;12.60;67.10;;;;;;5012691;28;20029;-71
2020/12/27 05:26:47;;;;;;;17.38;5.47;;;12.50;67.00;;;;;;5010505;28;20024;-71
2020/12/27 05:29:31;;;;;;;16.80;4.65;;;12.40;67.10;;;;;;5012680;28;20413;-71
2020/12/27 05:31:59;;;;;;;9.18;3.85;;;12.30;67.10;;;;;;5003239;28;20065;-71
2020/12/27 05:34:30;;;;;;;11.07;4.80;;;12.30;67.10;;;;;;5014627;28;20363;-72
2020/12/27 05:37:01;;;;;;;15.18;5.18;;;12.20;66.90;;;;;;5023405;28;20029;-71
2020/12/27 05:39:28;;;;;;;11.57;4.65;;;12.20;67.30;;;;;;5009691;28;20033;-71
2020/12/27 05:42:13;;;;;;;12.80;4.05;;;12.10;67.20;;;;;;5012239;28;20033;-71
2020/12/27 05:44:39;;;;;;;13.93;4.05;;;12.00;67.40;;;;;;5013610;28;20028;-71
2020/12/27 05:47:06;;;;;;;12.85;4.40;;;11.90;67.40;;;;;;5011400;28;20468;-71
2020/12/27 05:49:32;;;;;;;8.13;4.18;;;11.80;67.80;;;;;;5006615;28;20084;-71
2020/12/27 05:52:00;;;;;;;13.43;4.10;;;11.80;68.10;;;;;;5011880;28;20115;-72
2020/12/27 05:54:36;;;;;;;14.75;3.63;;;11.90;67.90;;;;;;5010331;28;20029;-72
2020/12/27 05:57:04;;;;;;;11.95;3.83;;;11.90;67.60;;;;;;5024810;28;20463;-72
2020/12/27 05:59:35;;;;;;;10.30;4.53;;;11.80;67.60;;;;;;5011367;28;20038;-72
2020/12/27 06:02:02;;;;;;;16.05;5.63;;;11.80;68.10;;;;;;5008001;28;20109;-71
2020/12/27 06:05:06;;;;;;;13.48;4.35;;;11.70;68.10;;;;;;5012656;28;20026;-71
2020/12/27 06:07:40;;;;;;;11.32;4.45;;;11.70;67.90;;;;;;5012182;28;20029;-72
2020/12/27 06:10:10;;;;;;;12.80;5.05;;;11.70;67.60;;;;;;5011193;28;20452;-72
2020/12/27 06:12:47;;;;;;;11.43;4.55;;;11.60;68.10;;;;;;5011934;28;20026;-72
2020/12/27 06:15:30;;;;;;;10.60;4.22;;;11.60;68.10;;;;;;5011052;28;20054;-72
2020/12/27 06:18:12;;;;;;;11.45;4.53;;;11.50;68.20;;;;;;5010902;28;20026;-72
2020/12/27 06:20:41;;;;;;;16.23;5.20;;;11.50;68.20;;;;;;5010820;28;20045;-72
2020/12/27 06:23:08;;;;;;;14.23;4.05;;;11.60;68.00;;;;;;5008662;28;20026;-71
2020/12/27 06:25:36;;;;;;;10.57;5.25;;;11.60;68.20;;;;;;5011745;28;20113;-72
2020/12/27 06:28:03;;;;;;;14.85;3.88;;;11.50;68.20;;;;;;5012079;28;20017;-71
2020/12/27 06:30:36;;;;;;;18.63;8.40;;;11.60;68.20;;;;;;5012368;28;20079;-71
2020/12/27 06:33:26;;;;;;;17.88;4.78;;;11.50;68.70;;;;;;5011324;28;20053;-71
2020/12/27 06:35:53;;;;;;;13.55;7.43;;;11.50;68.80;;;;;;5006471;28;20144;-71
2020/12/27 06:38:23;;;;;;;15.77;4.63;;;11.50;68.70;;;;;;5011821;28;20037;-73
2020/12/27 06:41:07;;;;;;;22.85;6.65;;;11.40;69.10;;;;;;5021334;28;20029;-73
2020/12/27 06:43:41;;;;;;;17.25;5.38;;;11.40;68.80;;;;;;5022503;28;20030;-73
2020/12/27 06:46:27;;;;;;;16.90;6.28;;;11.40;69.10;;;;;;5022355;28;20364;-72
2020/12/27 06:49:15;;;;;;;19.25;5.70;;;11.40;69.20;;;;;;5003942;28;20022;-72
2020/12/27 06:51:45;;;;;;;16.95;6.93;;;11.40;69.50;;;;;;5006633;28;20045;-72
2020/12/27 06:54:14;;;;;;;23.20;6.20;;;11.40;69.60;;;;;;5017220;28;20084;-72
2020/12/27 06:56:45;;;;;;;11.88;6.53;;;11.40;69.70;;;;;;5017940;28;20398;-72
2020/12/27 06:59:12;;;;;;;18.92;7.78;;;11.30;69.80;;;;;;5030362;28;20077;-71
2020/12/27 07:01:39;;;;;;;17.83;7.35;;;11.40;70.00;;;;;;5015544;28;20444;-72
2020/12/27 07:04:13;;;;;;;15.38;7.18;;;11.40;69.90;;;;;;4997645;28;20025;-72
2020/12/27 07:06:43;;;;;;;19.45;6.40;;;11.30;69.90;;;;;;5010867;28;20024;-71
2020/12/27 07:09:10;;;;;;;16.25;4.85;;;11.40;69.90;;;;;;5011238;28;20037;-72
2020/12/27 07:11:37;;;;;;;21.52;6.85;;;11.40;70.00;;;;;;5014938;28;20040;-72
2020/12/27 07:14:04;;;;;;;20.15;7.90;;;11.40;70.50;;;;;;5018001;28;20037;-72
2020/12/27 07:16:36;;;;;;;17.88;7.72;;;11.40;70.40;;;;;;5016618;28;20463;-71
2020/12/27 07:19:05;;;;;;;15.65;5.30;;;11.40;70.40;;;;;;5013383;28;20049;-71
2020/12/27 07:21:36;;;;;;;18.85;8.50;;;11.40;70.30;;;;;;5008837;28;20373;-71
2020/12/27 07:24:08;;;;;;;15.23;6.22;;;11.40;70.10;;;;;;5007059;28;20118;-72
2020/12/27 07:26:42;;;;;;;;;;;11.50;70.30;;;;;;5010862;28;20509;-73
2020/12/27 07:29:11;;;;;;;15.57;5.57;;;11.40;70.40;;;;;;5014721;28;19924;-72
2020/12/27 07:31:39;;;;;;;16.52;7.85;;;11.30;70.00;;;;;;5012294;28;20029;-72
2020/12/27 07:34:08;;;;;;;21.08;6.35;;;11.30;70.80;;;;;;5014376;28;20463;-72
2020/12/27 07:36:36;;;;;;;21.08;8.50;;;11.30;70.60;;;;;;5014925;28;20040;-71
2020/12/27 07:39:08;;;;;;;18.45;6.90;;;11.40;71.20;;;;;;5013135;28;20479;-71
2020/12/27 07:41:42;;;;;;;18.10;7.63;;;11.40;71.00;;;;;;5008970;28;20034;-72
2020/12/27 07:44:16;;;;;;;15.63;5.40;;;11.30;70.50;;;;;;5015611;28;20360;-72
2020/12/27 07:46:43;;;;;;;20.65;7.15;;;11.40;70.50;;;;;;5016777;28;20100;-72
2020/12/27 07:49:13;;;;;;;18.55;6.05;;;11.40;70.40;;;;;;5017145;28;20033;-73
2020/12/27 07:51:40;;;;;;;16.35;5.22;;;11.30;70.60;;;;;;5016092;28;20080;-71
2020/12/27 07:54:07;;;;;;;14.18;5.13;;;11.40;70.70;;;;;;5016426;28;20026;-72
2020/12/27 07:56:34;;;;;;;13.70;5.00;;;11.30;70.30;;;;;;5016977;28;20026;-72
2020/12/27 07:59:02;;;;;;;10.07;4.75;;;11.20;70.90;;;;;;5016661;28;20026;-72
2020/12/27 08:01:34;;;;;;;18.55;6.07;;;11.10;70.60;;;;;;5016609;28;20452;-72
2020/12/27 08:04:02;;;;;;;12.60;4.53;;;11.10;71.20;;;;;;5016602;28;20420;-71
2020/12/27 08:06:31;;;;;;;17.58;5.20;;;11.10;70.80;;;;;;5015091;28;20022;-71
2020/12/27 08:09:08;;;;;;;14.27;4.68;;;11.10;71.00;;;;;;5012932;28;20087;-71
2020/12/27 08:11:39;;;;;;;15.25;4.72;;;11.20;70.90;;;;;;5017308;28;20053;-72
2020/12/27 08:14:09;;;;;;;15.80;4.67;;;11.10;70.90;;;;;;5012724;28;20030;-72
2020/12/27 08:16:40;;;;;;;14.32;4.95;;;11.10;70.70;;;;;;5011666;28;20294;-71
2020/12/27 08:19:14;;;;;;;15.33;3.87;;;11.10;71.00;;;;;;5012885;28;20364;-72
2020/12/27 08:21:45;;;;;;;11.98;4.47;;;11.10;71.20;;;;;;5013350;28;20080;-72
2020/12/27 08:24:13;;;;;;;14.43;4.07;;;11.10;71.10;;;;;;5009476;28;20810;-72
2020/12/27 08:26:42;;;;;;;14.00;4.97;;;11.00;70.90;;;;;;5015581;28;20034;-71
2020/12/27 08:29:25;;;;;;;23.45;9.25;;;11.00;71.20;;;;;;5014818;28;20026;-72
2020/12/27 08:32:03;;;;;;;13.63;4.85;;;11.10;71.40;;;;;;4999562;28;20026;-71
2020/12/27 08:34:30;;;;;;;16.48;6.00;;;11.00;71.10;;;;;;5012394;28;20439;-72
2020/12/27 08:37:00;;;;;;;14.88;4.75;;;11.00;71.70;;;;;;5015614;28;20018;-71
2020/12/27 08:39:43;;;;;;;15.45;4.75;;;11.00;71.70;;;;;;5015551;28;20030;-71
2020/12/27 08:42:19;;;;;;;21.38;7.63;;;10.90;71.50;;;;;;5015649;28;20108;-71
2020/12/27 08:44:49;;;;;;;15.60;4.57;;;10.90;71.90;;;;;;5015339;28;20030;-71
2020/12/27 08:47:46;;;;;;;25.70;8.57;;;10.90;71.80;;;;;;5004015;28;20037;-72
2020/12/27 08:50:22;;;;;;;16.00;4.10;;;10.90;71.60;;;;;;5003689;28;20117;-72
2020/12/27 08:52:53;;;;;;;20.67;6.53;;;10.90;72.00;;;;;;5015254;28;20034;-72
2020/12/27 08:55:27;;;;;;;15.90;5.10;;;10.80;71.90;;;;;;5014885;28;20124;-71
2020/12/27 08:57:54;;;;;;;11.70;3.88;;;10.80;71.80;;;;;;5014608;28;20057;-71
2020/12/27 09:00:21;;;;;;;10.80;3.55;;;10.80;72.30;;;;;;5009445;28;20169;-72
2020/12/27 09:02:58;;;;;;;10.63;4.13;;;10.90;72.20;;;;;;5014556;28;20036;-71
2020/12/27 09:05:32;;;;;;;13.52;3.80;;;11.00;71.70;;;;;;5014877;28;20052;-72
2020/12/27 09:07:59;;;;;;;15.20;3.85;;;11.00;71.80;;;;;;5015737;28;20036;-71
2020/12/27 09:10:30;;;;;;;10.05;4.13;;;11.10;72.20;;;;;;5014411;28;20026;-72
2020/12/27 09:12:57;;;;;;;18.75;4.05;;;11.10;71.70;;;;;;5015476;28;20030;-71
2020/12/27 09:15:26;;;;;;;16.15;4.88;;;11.10;71.70;;;;;;5015304;28;20022;-71
2020/12/27 09:17:57;;;;;;;14.60;4.22;;;11.00;71.90;;;;;;5015298;28;20032;-71
2020/12/27 09:20:24;;;;;;;15.57;4.27;;;10.90;72.20;;;;;;5014386;28;20030;-71
2020/12/27 09:22:52;;;;;;;17.20;5.57;;;10.90;72.50;;;;;;5014987;28;20026;-71
2020/12/27 09:25:20;;;;;;;21.05;5.03;;;10.80;72.30;;;;;;5012051;28;20413;-72
2020/12/27 09:27:48;;;;;;;10.18;4.03;;;10.70;72.50;;;;;;5003515;28;20030;-71
2020/12/27 09:30:25;;;;;;;10.00;3.83;;;10.90;72.50;;;;;;5015210;28;20309;-71
2020/12/27 09:33:02;;;;;;;9.30;3.72;;;11.00;71.90;;;;;;5014997;28;20034;-71
2020/12/27 09:35:29;;;;;;;11.00;4.25;;;11.00;71.80;;;;;;5014884;28;20037;-72
2020/12/27 09:37:55;;;;;;;19.90;5.68;;;11.00;72.00;;;;;;5015002;28;20108;-72
2020/12/27 09:40:22;;;;;;;15.75;3.95;;;11.00;71.70;;;;;;5011948;28;20037;-72
2020/12/27 09:42:48;;;;;;;12.88;4.32;;;10.90;71.60;;;;;;5005782;28;20356;-72
2020/12/27 09:45:22;;;;;;;42.35;6.43;;;10.90;71.70;;;;;;5014375;28;20018;-73
2020/12/27 09:47:57;;;;;;;11.63;4.10;;;10.90;71.70;;;;;;5008815;28;20018;-72
2020/12/27 09:50:33;;;;;;;13.75;5.10;;;10.90;71.90;;;;;;5003956;28;20021;-72
2020/12/27 09:53:00;;;;;;;15.13;4.78;;;10.90;71.80;;;;;;5021533;28;20363;-73
2020/12/27 09:55:26;;;;;;;16.70;4.45;;;10.90;71.60;;;;;;5016948;28;20483;-71
2020/12/27 09:57:53;;;;;;;10.55;4.32;;;10.80;71.60;;;;;;5017200;28;20087;-72
2020/12/27 10:00:19;;;;;;;16.52;4.55;;;10.80;72.00;;;;;;5013439;28;20045;-72
2020/12/27 10:02:46;;;;;;;17.52;4.40;;;10.70;72.10;;;;;;5003832;28;20018;-71
2020/12/27 10:05:13;;;;;;;20.17;4.43;;;10.80;72.10;;;;;;5014186;28;20052;-71
2020/12/27 10:07:40;;;;;;;14.85;4.13;;;10.70;72.10;;;;;;5010758;28;20030;-70
2020/12/27 10:10:08;;;;;;;20.15;5.57;;;10.80;72.40;;;;;;5014217;28;20448;-71
2020/12/27 10:12:35;;;;;;;15.35;4.47;;;10.80;72.30;;;;;;5013462;28;20044;-71
2020/12/27 10:15:07;;;;;;;16.50;4.30;;;10.80;72.10;;;;;;5014249;28;20104;-71
2020/12/27 10:17:34;;;;;;;14.98;6.25;;;10.90;72.00;;;;;;5012435;28;20454;-71
2020/12/27 10:20:01;;;;;;;14.13;3.92;;;10.80;72.30;;;;;;5010059;28;20046;-72
2020/12/27 10:22:28;;;;;;;11.13;3.72;;;10.80;72.40;;;;;;5012136;28;20462;-71
2020/12/27 10:24:54;;;;;;;9.38;4.55;;;10.80;72.30;;;;;;5014658;28;20026;-71
2020/12/27 10:27:21;;;;;;;19.75;4.20;;;10.80;72.40;;;;;;5013971;28;20026;-71
2020/12/27 10:29:48;;;;;;;9.10;4.22;;;10.80;72.20;;;;;;5013018;28;20022;-71
2020/12/27 10:32:14;;;;;;;10.07;3.63;;;10.70;72.20;;;;;;5003109;28;20037;-70
2020/12/27 10:34:41;;;;;;;17.13;5.50;;;10.70;72.30;;;;;;5004714;28;20089;-71
2020/12/27 10:37:07;;;;;;;7.30;3.10;;;10.60;72.40;;;;;;5009661;28;20034;-71
2020/12/27 10:39:34;;;;;;;9.35;3.08;;;10.60;72.70;;;;;;5013298;28;20440;-71
2020/12/27 10:42:00;;;;;;;12.75;3.80;;;10.50;72.90;;;;;;5013224;28;20371;-70
2020/12/27 10:44:27;;;;;;;12.98;4.05;;;10.60;73.00;;;;;;5011605;28;20352;-71
2020/12/27 10:46:53;;;;;;;11.18;4.30;;;10.60;72.70;;;;;;5014287;28;20509;-71
2020/12/27 10:49:22;;;;;;;14.93;4.00;;;10.60;72.50;;;;;;5014262;28;20478;-71
2020/12/27 10:51:49;;;;;;;11.48;3.60;;;10.70;72.50;;;;;;5014085;28;20030;-71
2020/12/27 10:54:15;;;;;;;13.95;3.97;;;10.70;72.30;;;;;;5012097;28;20409;-71
2020/12/27 10:56:46;;;;;;;13.98;4.82;;;10.90;72.00;;;;;;5012596;28;20029;-71
2020/12/27 10:59:16;;;;;;;16.17;4.43;;;11.00;71.80;;;;;;5013902;28;20041;-71
2020/12/27 11:01:47;;;;;;;9.65;3.35;;;10.90;71.60;;;;;;5012508;28;20123;-72
2020/12/27 11:04:14;;;;;;;17.20;4.30;;;10.80;72.30;;;;;;5013923;28;20022;-72
2020/12/27 11:06:41;;;;;;;11.80;3.53;;;10.70;72.10;;;;;;5012044;28;20367;-73
2020/12/27 11:09:08;;;;;;;7.35;3.10;;;10.60;72.60;;;;;;5013815;28;20029;-72
2020/12/27 11:11:35;;;;;;;10.98;4.13;;;10.50;73.00;;;;;;5013579;28;20044;-71
2020/12/27 11:14:04;;;;;;;13.77;4.97;;;10.60;73.00;;;;;;5007978;28;20407;-71
2020/12/27 11:16:33;;;;;;;8.70;3.10;;;10.70;72.60;;;;;;5001364;28;20060;-73
2020/12/27 11:19:00;;;;;;;10.43;3.40;;;10.70;72.50;;;;;;5012990;28;20032;-71
2020/12/27 11:21:27;;;;;;;19.67;4.57;;;10.90;72.00;;;;;;5013746;28;20032;-71
2020/12/27 11:23:53;;;;;;;15.30;4.20;;;10.80;71.80;;;;;;5013976;28;20024;-71
2020/12/27 11:26:20;;;;;;;20.10;5.28;;;10.70;71.90;;;;;;5015219;28;20028;-71
2020/12/27 11:28:47;;;;;;;10.35;4.18;;;10.60;72.40;;;;;;5017245;28;20038;-72
2020/12/27 11:31:20;;;;;;;15.70;4.18;;;10.60;72.40;;;;;;5017396;28;20025;-71
2020/12/27 11:33:47;;;;;;;7.63;3.47;;;10.60;72.80;;;;;;5017630;28;20026;-72
2020/12/27 11:36:14;;;;;;;12.55;3.83;;;10.60;72.70;;;;;;5017453;28;20036;-71
2020/12/27 11:38:40;;;;;;;9.85;3.63;;;10.70;72.70;;;;;;5017320;28;20025;-71
2020/12/27 11:41:07;;;;;;;7.30;3.42;;;10.70;72.10;;;;;;5010651;28;20023;-71
2020/12/27 11:43:34;;;;;;;13.20;3.92;;;10.60;72.60;;;;;;5009600;28;20021;-71
2020/12/27 11:46:00;;;;;;;12.02;4.32;;;10.60;73.00;;;;;;5017052;28;20017;-71
2020/12/27 11:48:27;;;;;;;9.02;3.35;;;10.70;72.40;;;;;;5016503;28;20030;-71
2020/12/27 11:50:54;;;;;;;10.70;3.70;;;10.80;72.40;;;;;;5016917;28;20088;-71
2020/12/27 11:53:20;;;;;;;11.88;3.35;;;10.90;71.70;;;;;;5016081;28;20037;-71
2020/12/27 11:55:47;;;;;;;12.93;3.95;;;10.80;71.50;;;;;;5013737;28;20044;-71
2020/12/27 11:58:13;;;;;;;11.45;3.83;;;10.80;71.80;;;;;;5010213;28;20413;-72
2020/12/27 12:00:40;;;;;;;9.68;3.72;;;10.70;71.90;;;;;;5031942;28;20053;-71
2020/12/27 12:03:06;;;;;;;8.82;3.58;;;10.70;72.20;;;;;;5016548;28;20109;-72
2020/12/27 12:05:33;;;;;;;9.50;3.55;;;10.60;72.30;;;;;;5015262;28;20029;-71
2020/12/27 12:07:59;;;;;;;7.05;3.80;;;10.60;72.70;;;;;;5014935;28;20037;-71
2020/12/27 12:10:25;;;;;;;11.55;3.35;;;10.60;72.50;;;;;;5014244;28;20325;-72
2020/12/27 12:12:52;;;;;;;13.38;3.13;;;10.60;72.10;;;;;;5013383;28;20083;-72
2020/12/27 12:15:18;;;;;;;6.00;3.22;;;10.50;72.20;;;;;;5016566;28;20121;-71
2020/12/27 12:17:45;;;;;;;11.75;3.45;;;10.40;72.00;;;;;;5015761;28;20080;-71
2020/12/27 12:20:42;;;;;;;10.35;3.60;;;10.40;72.20;;;;;;5016042;28;20034;-71
2020/12/27 12:22:57;;;;;;;11.80;3.80;;;10.30;72.20;;;;;;5016248;28;20471;-71
2020/12/27 12:25:23;;;;;;;6.53;3.00;;;10.30;72.50;;;;;;5015997;28;20026;-71
2020/12/27 12:27:50;;;;;;;6.00;3.28;;;10.40;72.80;;;;;;5016218;28;20022;-71
2020/12/27 12:30:16;;;;;;;12.00;4.47;;;10.40;72.20;;;;;;5014960;28;20026;-72
2020/12/27 12:32:43;;;;;;;10.52;3.17;;;10.30;72.00;;;;;;5015463;28;20033;-71
2020/12/27 12:35:09;;;;;;;5.03;3.25;;;10.30;72.20;;;;;;5016213;28;20519;-71
2020/12/27 12:37:37;;;;;;;6.50;2.90;;;10.30;72.10;;;;;;5015522;28;20030;-71
2020/12/27 12:40:05;;;;;;;14.15;3.60;;;10.20;72.10;;;;;;5015783;28;20471;-71
2020/12/27 12:42:36;;;;;;;10.07;3.70;;;10.30;72.20;;;;;;5016224;28;20026;-71
2020/12/27 12:45:08;;;;;;;10.50;3.47;;;10.30;72.00;;;;;;5007263;28;20025;-71
2020/12/27 12:47:35;;;;;;;4.47;4.07;;;10.30;71.60;;;;;;5015449;28;20089;-71
2020/12/27 12:50:02;;;;;;;10.07;3.70;;;10.30;71.80;;;;;;5011960;28;20030;-72